Time,TemperatureF,DewpointF,PressureIn,WindDirection,WindDirectionDegrees,WindSpeedMPH,WindSpeedGustMPH,Humidity,HourlyPrecipIn,Conditions,Clouds,dailyrainin,SoftwareType,DateUTC
2013-01-20 00:08:00,-999.0,-99.9,29.39,North,-999,-999.0,-999.0,-999,-99.99,,,0.00,weatherlink.com 1.10,2013-01-20 05:08:00,
2013-01-20 00:23:00,-999.0,-99.9,29.39,North,-999,-999.0,-999.0,-999,-99.99,,,0.00,weatherlink.com 1.10,2013-01-20 05:23:00,
2013-01-20 00:38:00,-999.0,-99.9,29.39,North,-999,-999.0,-999.0,-999,-99.99,,,0.00,weatherlink.com 1.10,2013-01-20 05:38:00,
2013-01-20 00:53:00,-999.0,-99.9,29.40,North,-999,-999.0,-999.0,-999,-99.99,,,0.00,weatherlink.com 1.10,2013-01-20 05:53:00,
2013-01-20 01:08:00,-999.0,-99.9,29.39,North,-999,-999.0,-999.0,-999,-99.99,,,0.00,weatherlink.com 1.10,2013-01-20 06:08:00,
2013-01-20 01:23:00,-999.0,-99.9,29.40,North,-999,-999.0,-999.0,-999,-99.99,,,0.00,weatherlink.com 1.10,2013-01-20 06:23:00,
2013-01-20 01:38:00,-999.0,-99.9,29.41,North,-999,-999.0,-999.0,-999,-99.99,,,0.00,weatherlink.com 1.10,2013-01-20 06:38:00,
2013-01-20 01:53:00,-999.0,-99.9,29.43,North,-999,-999.0,-999.0,-999,-99.99,,,0.00,weatherlink.com 1.10,2013-01-20 06:53:00,
2013-01-20 02:08:00,-999.0,-99.9,29.46,North,-999,-999.0,-999.0,-999,-99.99,,,0.00,weatherlink.com 1.10,2013-01-20 07:08:00,
2013-01-20 02:23:00,-999.0,-99.9,29.50,North,-999,-999.0,-999.0,-999,-99.99,,,0.00,weatherlink.com 1.10,2013-01-20 07:23:00,
2013-01-20 02:38:00,-999.0,-99.9,29.53,North,-999,-999.0,-999.0,-999,-99.99,,,0.00,weatherlink.com 1.10,2013-01-20 07:38:00,
2013-01-20 07:31:00,-999.0,-99.9,29.86,North,-999,-999.0,-999.0,-999,-99.99,,,0.00,weatherlink.com 1.10,2013-01-20 12:31:00,
2013-01-20 07:39:00,-999.0,-99.9,29.88,North,-999,-999.0,-999.0,-999,-99.99,,,0.00,weatherlink.com 1.10,2013-01-20 12:39:00,
2013-01-20 07:54:00,-999.0,-99.9,29.88,North,-999,-999.0,-999.0,-999,-99.99,,,0.00,weatherlink.com 1.10,2013-01-20 12:54:00,
2013-01-20 08:09:00,-999.0,-99.9,29.89,North,-999,-999.0,-999.0,-999,-99.99,,,0.00,weatherlink.com 1.10,2013-01-20 13:09:00,
2013-01-20 08:24:00,-999.0,-99.9,29.91,North,-999,-999.0,-999.0,-999,-99.99,,,0.00,weatherlink.com 1.10,2013-01-20 13:24:00,
2013-01-20 08:39:00,-999.0,-99.9,29.93,North,-999,-999.0,-999.0,-999,-99.99,,,0.00,weatherlink.com 1.10,2013-01-20 13:39:00,
2013-01-20 08:54:00,-999.0,-99.9,29.95,North,-999,-999.0,-999.0,-999,-99.99,,,0.00,weatherlink.com 1.10,2013-01-20 13:54:00,
2013-01-20 09:09:00,11.1,7.0,29.97,NW,313,8.0,-999.0,84,-99.99,,,0.00,weatherlink.com 1.10,2013-01-20 14:09:00,
2013-01-20 09:24:00,11.0,7.0,29.99,WNW,294,3.0,-999.0,83,-99.99,,,0.00,weatherlink.com 1.10,2013-01-20 14:24:00,
2013-01-20 09:39:00,11.5,8.0,30.00,WNW,300,5.0,-999.0,84,-99.99,,,0.00,weatherlink.com 1.10,2013-01-20 14:39:00,
2013-01-20 09:54:00,11.6,8.0,30.01,WNW,300,5.0,-999.0,85,-99.99,,,0.00,weatherlink.com 1.10,2013-01-20 14:54:00,
2013-01-20 10:09:00,11.8,8.0,30.02,WNW,289,10.0,-999.0,83,-99.99,,,0.00,weatherlink.com 1.10,2013-01-20 15:09:00,
2013-01-20 10:24:00,12.5,8.0,30.03,NW,322,3.0,-999.0,82,-99.99,,,0.00,weatherlink.com 1.10,2013-01-20 15:24:00,
2013-01-20 10:40:00,12.7,8.0,30.03,WNW,296,7.0,-999.0,81,-99.99,,,0.00,weatherlink.com 1.10,2013-01-20 15:40:00,
2013-01-20 10:55:00,12.7,8.0,30.04,WNW,300,11.0,-999.0,80,-99.99,,,0.00,weatherlink.com 1.10,2013-01-20 15:55:00,
2013-01-20 11:10:00,12.5,7.0,30.04,West,279,12.0,-999.0,79,-99.99,,,0.00,weatherlink.com 1.10,2013-01-20 16:10:00,
2013-01-20 11:25:00,12.5,7.0,30.05,WNW,300,6.0,-999.0,78,-99.99,,,0.00,weatherlink.com 1.10,2013-01-20 16:25:00,
2013-01-20 11:40:00,12.8,7.0,30.05,West,276,16.0,-999.0,79,-99.99,,,0.00,weatherlink.com 1.10,2013-01-20 16:40:00,
2013-01-20 11:55:00,13.0,8.0,30.05,WNW,302,4.0,-999.0,81,-99.99,,,0.00,weatherlink.com 1.10,2013-01-20 16:55:00,
2013-01-20 12:10:00,13.5,8.0,30.04,WNW,300,8.0,-999.0,77,-99.99,,,0.00,weatherlink.com 1.10,2013-01-20 17:10:00,
2013-01-20 12:25:00,13.9,8.0,30.04,WNW,302,11.0,-999.0,76,-99.99,,,0.00,weatherlink.com 1.10,2013-01-20 17:25:00,
2013-01-20 12:40:00,14.0,8.0,30.04,West,276,14.0,-999.0,76,-99.99,,,0.00,weatherlink.com 1.10,2013-01-20 17:40:00,
2013-01-20 12:55:00,14.4,8.0,30.04,NW,317,7.0,-999.0,76,-99.99,,,0.00,weatherlink.com 1.10,2013-01-20 17:55:00,
2013-01-20 13:10:00,14.8,9.0,30.04,WNW,291,5.0,-999.0,77,-99.99,,,0.00,weatherlink.com 1.10,2013-01-20 18:10:00,
2013-01-20 13:25:00,13.9,8.0,30.04,NW,311,2.0,-999.0,77,-99.99,,,0.00,weatherlink.com 1.10,2013-01-20 18:25:00,
2013-01-20 13:40:00,14.1,9.0,30.04,WNW,301,10.0,-999.0,81,-99.99,,,0.00,weatherlink.com 1.10,2013-01-20 18:40:00,
2013-01-20 13:56:00,14.2,10.0,30.04,WNW,287,8.0,-999.0,82,-99.99,,,0.00,weatherlink.com 1.10,2013-01-20 18:56:00,
2013-01-20 14:11:00,13.6,9.0,30.04,WNW,288,5.0,-999.0,80,-99.99,,,0.00,weatherlink.com 1.10,2013-01-20 19:11:00,
2013-01-20 14:26:00,14.6,11.0,30.04,NW,305,4.0,-999.0,85,-99.99,,,0.00,weatherlink.com 1.10,2013-01-20 19:26:00,
2013-01-20 14:41:00,14.3,10.0,30.05,WNW,284,7.0,-999.0,84,-99.99,,,0.00,weatherlink.com 1.10,2013-01-20 19:41:00,
2013-01-20 14:56:00,13.6,11.0,30.06,NW,311,15.0,-999.0,88,-99.99,,,0.00,weatherlink.com 1.10,2013-01-20 19:56:00,
2013-01-20 15:11:00,14.4,10.0,30.06,WNW,296,12.0,-999.0,82,-99.99,,,0.00,weatherlink.com 1.10,2013-01-20 20:11:00,
2013-01-20 15:26:00,14.4,9.0,30.06,NW,309,10.0,-999.0,79,-99.99,,,0.00,weatherlink.com 1.10,2013-01-20 20:26:00,
2013-01-20 15:41:00,14.1,9.0,30.07,WNW,288,5.0,-999.0,79,-99.99,,,0.00,weatherlink.com 1.10,2013-01-20 20:41:00,
2013-01-20 15:56:00,13.7,8.0,30.07,WNW,302,10.0,-999.0,78,-99.99,,,0.00,weatherlink.com 1.10,2013-01-20 20:56:00,
2013-01-20 16:11:00,13.2,7.0,30.09,NW,313,2.0,-999.0,77,-99.99,,,0.00,weatherlink.com 1.10,2013-01-20 21:11:00,
2013-01-20 16:41:00,13.0,6.0,30.09,WNW,294,7.0,-999.0,74,-99.99,,,0.00,weatherlink.com 1.10,2013-01-20 21:41:00,
2013-01-20 16:57:00,12.6,6.0,30.10,WNW,298,11.0,-999.0,73,-99.99,,,0.00,weatherlink.com 1.10,2013-01-20 21:57:00,
2013-01-20 17:11:00,-999.0,-99.9,30.10,North,-999,-999.0,-999.0,-999,-99.99,,,0.00,weatherlink.com 1.10,2013-01-20 22:11:00,
2013-01-20 17:27:00,-999.0,-99.9,30.11,North,-999,-999.0,-999.0,-999,-99.99,,,0.00,weatherlink.com 1.10,2013-01-20 22:27:00,
2013-01-20 17:42:00,-999.0,-99.9,30.11,North,-999,-999.0,-999.0,-999,-99.99,,,0.00,weatherlink.com 1.10,2013-01-20 22:42:00,
2013-01-20 17:57:00,-999.0,-99.9,30.10,North,-999,-999.0,-999.0,-999,-99.99,,,0.00,weatherlink.com 1.10,2013-01-20 22:57:00,
2013-01-20 18:27:00,-999.0,-99.9,30.11,North,-999,-999.0,-999.0,-999,-99.99,,,0.00,weatherlink.com 1.10,2013-01-20 23:27:00,
2013-01-20 18:57:00,-999.0,-99.9,30.11,North,-999,-999.0,-999.0,-999,-99.99,,,0.00,weatherlink.com 1.10,2013-01-20 23:57:00,
2013-01-20 19:12:00,-999.0,-99.9,30.12,North,-999,-999.0,-999.0,-999,-99.99,,,0.00,weatherlink.com 1.10,2013-01-21 00:12:00,
2013-01-20 19:27:00,-999.0,-99.9,30.11,North,-999,-999.0,-999.0,-999,-99.99,,,0.00,weatherlink.com 1.10,2013-01-21 00:27:00,
2013-01-20 19:42:00,-999.0,-99.9,30.11,North,-999,-999.0,-999.0,-999,-99.99,,,0.00,weatherlink.com 1.10,2013-01-21 00:42:00,
2013-01-20 19:57:00,-999.0,-99.9,30.12,North,-999,-999.0,-999.0,-999,-99.99,,,0.00,weatherlink.com 1.10,2013-01-21 00:57:00,
2013-01-20 20:12:00,-999.0,-99.9,30.11,North,-999,-999.0,-999.0,-999,-99.99,,,0.00,weatherlink.com 1.10,2013-01-21 01:12:00,
2013-01-20 20:27:00,-999.0,-99.9,30.11,North,-999,-999.0,-999.0,-999,-99.99,,,0.00,weatherlink.com 1.10,2013-01-21 01:27:00,
2013-01-20 20:42:00,-999.0,-99.9,30.10,North,-999,-999.0,-999.0,-999,-99.99,,,0.00,weatherlink.com 1.10,2013-01-21 01:42:00,
2013-01-20 20:58:00,-999.0,-99.9,30.10,North,-999,-999.0,-999.0,-999,-99.99,,,0.00,weatherlink.com 1.10,2013-01-21 01:58:00,
2013-01-20 21:13:00,-999.0,-99.9,30.10,North,-999,-999.0,-999.0,-999,-99.99,,,0.00,weatherlink.com 1.10,2013-01-21 02:13:00,
2013-01-20 21:28:00,-999.0,-99.9,30.09,North,-999,-999.0,-999.0,-999,-99.99,,,0.00,weatherlink.com 1.10,2013-01-21 02:28:00,
2013-01-20 21:43:00,-999.0,-99.9,30.09,North,-999,-999.0,-999.0,-999,-99.99,,,0.00,weatherlink.com 1.10,2013-01-21 02:43:00,
2013-01-20 21:58:00,-999.0,-99.9,30.09,North,-999,-999.0,-999.0,-999,-99.99,,,0.00,weatherlink.com 1.10,2013-01-21 02:58:00,
2013-01-20 22:13:00,-999.0,-99.9,30.09,North,-999,-999.0,-999.0,-999,-99.99,,,0.00,weatherlink.com 1.10,2013-01-21 03:13:00,
2013-01-20 22:28:00,-999.0,-99.9,30.08,North,-999,-999.0,-999.0,-999,-99.99,,,0.00,weatherlink.com 1.10,2013-01-21 03:28:00,
2013-01-20 22:43:00,-999.0,-99.9,30.08,North,-999,-999.0,-999.0,-999,-99.99,,,0.00,weatherlink.com 1.10,2013-01-21 03:43:00,
2013-01-20 22:58:00,-999.0,-99.9,30.08,North,-999,-999.0,-999.0,-999,-99.99,,,0.00,weatherlink.com 1.10,2013-01-21 03:58:00,
2013-01-20 23:13:00,-999.0,-99.9,30.07,North,-999,-999.0,-999.0,-999,-99.99,,,0.00,weatherlink.com 1.10,2013-01-21 04:13:00,
2013-01-20 23:28:00,-999.0,-99.9,30.07,North,-999,-999.0,-999.0,-999,-99.99,,,0.00,weatherlink.com 1.10,2013-01-21 04:28:00,
2013-01-20 23:43:00,-999.0,-99.9,30.07,North,-999,-999.0,-999.0,-999,-99.99,,,0.00,weatherlink.com 1.10,2013-01-21 04:43:00,
2013-01-20 23:58:00,-999.0,-99.9,30.06,North,-999,-999.0,-999.0,-999,-99.99,,,0.00,weatherlink.com 1.10,2013-01-21 04:58:00,